createdAt,value
2017-12-21T00:00:28.420Z,58.80
2017-12-21T00:01:28.308Z,53.50
2017-12-21T00:03:21.576Z,47.40
2017-12-21T00:04:21.486Z,57.00
2017-12-21T00:06:14.737Z,54.00
2017-12-21T00:07:14.666Z,65.10
2017-12-21T00:09:07.943Z,58.30
2017-12-21T00:10:07.855Z,59.10
2017-12-21T00:12:01.227Z,63.80
2017-12-21T00:13:01.045Z,60.00
2017-12-21T00:14:54.402Z,62.30
2017-12-21T00:15:54.308Z,65.70
2017-12-21T00:17:47.586Z,64.00
2017-12-21T00:18:47.510Z,71.50
2017-12-21T00:20:40.749Z,77.60
2017-12-21T00:21:40.679Z,70.20
2017-12-21T00:23:33.957Z,69.40
2017-12-21T00:24:33.871Z,68.20
2017-12-21T00:26:27.129Z,64.10
2017-12-21T00:27:27.062Z,70.60
2017-12-21T00:29:20.447Z,58.20
2017-12-21T00:30:20.241Z,59.90
2017-12-21T00:32:13.500Z,63.60
2017-12-21T00:33:13.431Z,68.40
2017-12-21T00:35:06.716Z,64.00
2017-12-21T00:36:06.625Z,68.20
2017-12-21T00:37:59.892Z,67.60
2017-12-21T00:38:59.804Z,67.20
2017-12-21T00:40:53.068Z,68.00
2017-12-21T00:41:52.998Z,68.20
2017-12-21T00:43:46.270Z,67.90
2017-12-21T00:44:46.187Z,69.40
2017-12-21T00:46:39.448Z,66.50
2017-12-21T00:47:39.376Z,67.20
2017-12-21T00:49:32.655Z,63.30
2017-12-21T00:50:32.567Z,60.80
2017-12-21T00:52:25.837Z,69.70
2017-12-21T00:53:25.759Z,62.20
2017-12-21T00:55:19.036Z,75.00
2017-12-21T00:56:18.951Z,77.00
2017-12-21T00:58:12.225Z,64.10
2017-12-21T00:59:12.139Z,75.60
2017-12-21T01:01:05.400Z,55.50
2017-12-21T01:02:05.333Z,60.30
2017-12-21T01:03:58.632Z,83.60
2017-12-21T01:04:58.522Z,80.00
2017-12-21T01:06:51.780Z,86.50
2017-12-21T01:07:51.713Z,77.80
2017-12-21T01:09:44.987Z,79.30
2017-12-21T01:10:44.895Z,98.40
2017-12-21T01:12:38.162Z,90.70
2017-12-21T01:13:38.093Z,81.80
2017-12-21T01:15:31.368Z,86.40
2017-12-21T01:16:31.285Z,100.80
2017-12-21T01:18:24.562Z,82.10
2017-12-21T01:19:24.475Z,88.50
2017-12-21T01:21:17.737Z,84.80
2017-12-21T01:22:17.668Z,89.80
2017-12-21T01:24:10.937Z,82.90
2017-12-21T01:25:10.849Z,83.40
2017-12-21T01:27:04.105Z,82.60
2017-12-21T01:28:04.041Z,86.70
2017-12-21T01:29:57.310Z,87.30
2017-12-21T01:30:57.221Z,76.30
2017-12-21T01:32:50.486Z,88.10
2017-12-21T01:33:50.411Z,80.80
2017-12-21T01:35:43.690Z,81.40
2017-12-21T01:36:43.604Z,84.20
2017-12-21T01:38:36.876Z,75.90
2017-12-21T01:39:36.791Z,75.10
2017-12-21T01:41:30.047Z,58.20
2017-12-21T01:42:29.975Z,73.60
2017-12-21T01:44:23.257Z,71.30
2017-12-21T01:45:23.167Z,62.30
2017-12-21T01:47:16.417Z,69.90
2017-12-21T01:48:16.348Z,69.30
2017-12-21T01:50:09.616Z,75.70
2017-12-21T01:51:09.528Z,83.10
2017-12-21T01:53:02.805Z,77.60
2017-12-21T01:54:02.718Z,70.60
2017-12-21T01:55:55.998Z,72.80
2017-12-21T01:56:55.909Z,65.40
2017-12-21T01:58:49.187Z,60.90
2017-12-21T01:59:49.101Z,60.20
2017-12-21T02:01:42.380Z,48.60
2017-12-21T02:02:42.311Z,52.60
2017-12-21T02:04:35.591Z,64.30
2017-12-21T02:05:35.500Z,61.40
2017-12-21T02:07:28.870Z,51.30
2017-12-21T02:08:28.680Z,68.70
2017-12-21T02:10:22.066Z,65.10
2017-12-21T02:11:21.861Z,55.80
2017-12-21T02:13:15.157Z,60.70
2017-12-21T02:14:15.052Z,74.40
2017-12-21T02:16:08.379Z,67.50
2017-12-21T02:17:08.309Z,71.90
2017-12-21T02:19:01.586Z,75.00
2017-12-21T02:20:01.500Z,74.60
2017-12-21T02:21:54.867Z,80.40
2017-12-21T02:22:54.675Z,86.40
2017-12-21T02:24:47.959Z,72.60
2017-12-21T02:25:47.868Z,74.20
2017-12-21T02:27:41.237Z,75.30
2017-12-21T02:28:41.057Z,69.50
2017-12-21T02:30:34.403Z,79.20
2017-12-21T02:31:34.310Z,93.70
2017-12-21T02:33:27.633Z,81.20
2017-12-21T02:34:27.502Z,90.70
2017-12-21T02:36:20.760Z,90.00
2017-12-21T02:37:20.717Z,82.70
2017-12-21T02:39:13.963Z,80.10
2017-12-21T02:40:13.876Z,84.20
2017-12-21T02:42:07.134Z,78.10
2017-12-21T02:43:07.066Z,78.60
2017-12-21T02:45:00.396Z,86.30
2017-12-21T02:46:00.310Z,85.30
2017-12-21T02:47:53.682Z,98.00
2017-12-21T02:48:53.504Z,94.00
2017-12-21T02:50:46.888Z,110.40
2017-12-21T02:51:46.691Z,105.90
2017-12-21T02:53:40.114Z,104.10
2017-12-21T02:54:39.882Z,108.20
2017-12-21T02:56:33.141Z,85.90
2017-12-21T02:57:33.072Z,107.70
2017-12-21T02:59:26.397Z,111.90
2017-12-21T03:00:26.308Z,101.10
2017-12-21T03:02:19.572Z,111.30
2017-12-21T03:03:19.502Z,122.00
2017-12-21T03:05:12.784Z,123.00
2017-12-21T03:06:12.695Z,120.40
2017-12-21T03:08:05.953Z,106.50
2017-12-21T03:09:05.882Z,114.60
2017-12-21T03:10:59.163Z,100.00
2017-12-21T03:11:59.074Z,91.80
2017-12-21T03:13:52.399Z,93.20
2017-12-21T03:14:52.313Z,108.30
2017-12-21T03:16:45.568Z,96.20
2017-12-21T03:17:45.500Z,102.70
2017-12-21T03:19:38.783Z,91.40
2017-12-21T03:20:38.697Z,83.00
2017-12-21T03:22:32.563Z,85.70
2017-12-21T03:23:31.884Z,82.90
2017-12-21T03:25:25.166Z,91.80
2017-12-21T03:26:25.078Z,89.70
2017-12-21T03:28:18.378Z,107.10
2017-12-21T03:29:18.310Z,115.40
2017-12-21T03:31:11.585Z,87.00
2017-12-21T03:32:11.503Z,85.40
2017-12-21T03:34:04.779Z,85.60
2017-12-21T03:35:04.689Z,87.00
2017-12-21T03:36:57.943Z,89.80
2017-12-21T03:37:57.870Z,93.00
2017-12-21T03:39:51.252Z,74.00
2017-12-21T03:40:51.062Z,77.70
2017-12-21T03:42:44.379Z,71.60
2017-12-21T03:43:44.307Z,72.80
2017-12-21T03:45:37.590Z,79.70
2017-12-21T03:46:37.504Z,75.30
2017-12-21T03:48:30.763Z,81.50
2017-12-21T03:49:30.694Z,83.50
2017-12-21T03:51:23.969Z,78.80
2017-12-21T03:52:23.872Z,83.10
2017-12-21T03:54:17.259Z,80.80
2017-12-21T03:55:17.063Z,78.20
2017-12-21T03:57:10.377Z,84.60
2017-12-21T03:58:10.310Z,86.70
2017-12-21T04:00:03.580Z,96.30
2017-12-21T04:01:03.488Z,87.20
2017-12-21T04:02:56.753Z,81.20
2017-12-21T04:03:56.680Z,74.20
2017-12-21T04:05:50.064Z,94.20
2017-12-21T04:06:49.869Z,85.50
2017-12-21T04:08:43.130Z,92.80
2017-12-21T04:09:43.061Z,77.30
2017-12-21T04:11:36.399Z,92.50
2017-12-21T04:12:36.309Z,87.00
2017-12-21T04:14:29.696Z,94.20
2017-12-21T04:15:29.502Z,88.20
2017-12-21T04:17:22.761Z,98.50
2017-12-21T04:18:22.692Z,100.00
2017-12-21T04:20:15.972Z,115.40
2017-12-21T04:21:15.884Z,114.10
2017-12-21T04:23:09.146Z,110.60
2017-12-21T04:24:09.076Z,121.20
2017-12-21T04:26:03.357Z,147.20
2017-12-21T04:27:03.267Z,135.80
2017-12-21T04:28:56.532Z,126.20
2017-12-21T04:29:56.455Z,133.40
2017-12-21T04:31:49.847Z,120.20
2017-12-21T04:32:49.645Z,115.30
2017-12-21T04:34:43.034Z,131.80
2017-12-21T04:35:42.836Z,137.90
2017-12-21T04:37:36.097Z,132.90
2017-12-21T04:38:36.032Z,146.70
2017-12-21T04:40:29.304Z,149.10
2017-12-21T04:41:29.214Z,146.60
2017-12-21T04:43:22.581Z,152.70
2017-12-21T04:44:22.418Z,157.80
2017-12-21T04:46:15.685Z,165.20
2017-12-21T04:47:15.596Z,154.60
2017-12-21T04:49:08.849Z,150.60
2017-12-21T04:50:08.776Z,147.90
2017-12-21T04:52:02.064Z,160.40
2017-12-21T04:53:01.976Z,164.00
2017-12-21T04:54:55.254Z,159.40
2017-12-21T04:55:55.164Z,160.70
2017-12-21T04:57:48.415Z,150.90
2017-12-21T04:58:48.344Z,163.80
2017-12-21T05:00:41.728Z,147.70
2017-12-21T05:01:41.531Z,154.80
2017-12-21T05:03:34.792Z,148.00
2017-12-21T05:04:34.722Z,150.70
2017-12-21T05:06:28.002Z,150.00
2017-12-21T05:07:27.913Z,148.50
2017-12-21T05:09:21.164Z,141.20
2017-12-21T05:10:21.093Z,147.50
2017-12-21T05:12:14.474Z,147.00
2017-12-21T05:13:14.309Z,147.40
2017-12-21T05:15:07.603Z,141.70
2017-12-21T05:16:07.495Z,138.20
2017-12-21T05:18:00.754Z,136.70
2017-12-21T05:19:00.687Z,139.70
2017-12-21T05:20:53.964Z,122.80
2017-12-21T05:21:53.876Z,131.70
2017-12-21T05:23:47.134Z,120.30
2017-12-21T05:24:47.066Z,132.30
2017-12-21T05:26:40.402Z,131.20
2017-12-21T05:27:40.315Z,136.30
2017-12-21T05:29:33.676Z,142.20
2017-12-21T05:30:33.493Z,130.20
2017-12-21T05:32:26.774Z,122.10
2017-12-21T05:33:26.681Z,133.50
2017-12-21T05:35:19.949Z,121.10
2017-12-21T05:36:19.864Z,120.20
2017-12-21T05:38:13.122Z,116.20
2017-12-21T05:39:13.046Z,123.50
2017-12-21T05:41:06.396Z,130.00
2017-12-21T05:42:06.309Z,128.60
2017-12-21T05:43:59.567Z,136.10
2017-12-21T05:44:59.497Z,127.10
2017-12-21T05:46:52.778Z,126.60
2017-12-21T05:47:52.689Z,127.60
2017-12-21T05:49:45.941Z,128.10
2017-12-21T05:50:45.871Z,115.50
2017-12-21T05:52:39.145Z,121.40
2017-12-21T05:53:39.057Z,114.10
2017-12-21T05:55:32.396Z,111.10
2017-12-21T05:56:32.309Z,117.80
2017-12-21T05:58:25.570Z,114.20
2017-12-21T05:59:25.496Z,111.70
2017-12-21T06:01:18.772Z,85.00
2017-12-21T06:02:18.684Z,90.30
2017-12-21T06:04:11.942Z,108.30
2017-12-21T06:05:11.872Z,116.40
2017-12-21T06:07:05.150Z,94.00
2017-12-21T06:08:05.062Z,101.60
2017-12-21T06:09:58.381Z,102.10
2017-12-21T06:10:58.308Z,95.30
2017-12-21T06:12:51.591Z,97.70
2017-12-21T06:13:51.504Z,95.90
2017-12-21T06:15:44.887Z,94.30
2017-12-21T06:16:44.686Z,85.00
2017-12-21T06:18:37.945Z,82.30
2017-12-21T06:19:37.875Z,74.90
2017-12-21T06:21:31.151Z,83.00
2017-12-21T06:22:31.064Z,86.30
2017-12-21T06:24:24.434Z,67.90
2017-12-21T06:25:24.303Z,75.50
2017-12-21T06:27:17.693Z,79.70
2017-12-21T06:28:17.495Z,79.50
2017-12-21T06:30:10.742Z,76.70
2017-12-21T06:31:10.675Z,66.80
2017-12-21T06:33:03.949Z,68.60
2017-12-21T06:34:03.861Z,66.50
2017-12-21T06:35:57.142Z,61.10
2017-12-21T06:36:57.054Z,63.30
2017-12-21T06:38:50.421Z,69.10
2017-12-21T06:39:50.305Z,71.00
2017-12-21T06:41:43.579Z,63.20
2017-12-21T06:42:43.492Z,63.50
2017-12-21T06:44:36.772Z,72.90
2017-12-21T06:45:36.704Z,67.50
2017-12-21T06:47:29.987Z,50.10
2017-12-21T06:48:29.908Z,64.90
2017-12-21T06:50:23.151Z,70.90
2017-12-21T06:51:23.087Z,67.50
2017-12-21T06:53:16.472Z,60.40
2017-12-21T06:54:16.308Z,67.30
2017-12-21T06:56:09.582Z,58.40
2017-12-21T06:57:09.495Z,66.40
2017-12-21T06:59:02.752Z,58.10
2017-12-21T07:00:02.682Z,62.70
2017-12-21T07:01:55.960Z,52.80
2017-12-21T07:02:55.873Z,59.00
2017-12-21T07:04:49.128Z,60.80
2017-12-21T07:05:49.060Z,57.70
2017-12-21T07:07:42.398Z,63.20
2017-12-21T07:08:42.306Z,58.50
2017-12-21T07:10:35.672Z,67.90
2017-12-21T07:11:35.482Z,67.30
2017-12-21T07:13:28.746Z,59.50
2017-12-21T07:14:28.660Z,55.70
2017-12-21T07:16:21.934Z,69.10
2017-12-21T07:17:21.836Z,63.10
2017-12-21T07:19:15.085Z,64.90
2017-12-21T07:20:15.015Z,58.50
2017-12-21T07:22:08.400Z,61.30
2017-12-21T07:23:08.192Z,60.30
2017-12-21T07:25:01.443Z,64.80
2017-12-21T07:26:01.374Z,68.20
2017-12-21T07:27:54.640Z,63.30
2017-12-21T07:28:54.548Z,61.70
2017-12-21T07:30:47.798Z,56.10
2017-12-21T07:31:47.726Z,58.00
2017-12-21T07:33:41.000Z,56.60
2017-12-21T07:34:40.911Z,55.00
2017-12-21T07:36:34.177Z,48.40
2017-12-21T07:37:34.087Z,50.50
2017-12-21T07:39:27.452Z,50.30
2017-12-21T07:40:27.272Z,49.20
2017-12-21T07:42:20.545Z,55.80
2017-12-21T07:43:20.460Z,51.40
2017-12-21T07:45:13.717Z,53.90
2017-12-21T07:46:13.648Z,43.30
2017-12-21T07:48:07.919Z,44.20
2017-12-21T07:49:07.826Z,47.60
2017-12-21T07:51:01.072Z,55.40
2017-12-21T07:52:01.004Z,58.30
2017-12-21T07:53:54.272Z,52.60
2017-12-21T07:54:54.179Z,49.50
2017-12-21T07:56:47.564Z,52.10
2017-12-21T07:57:47.361Z,50.70
2017-12-21T07:59:40.621Z,46.10
2017-12-21T08:00:40.551Z,53.10
2017-12-21T08:02:33.818Z,50.10
2017-12-21T08:03:33.728Z,44.00
2017-12-21T08:05:26.975Z,46.60
2017-12-21T08:06:26.910Z,47.20
2017-12-21T08:08:20.172Z,47.60
2017-12-21T08:09:20.084Z,47.60
2017-12-21T08:11:13.451Z,49.50
2017-12-21T08:12:13.261Z,48.80
2017-12-21T08:14:06.539Z,43.60
2017-12-21T08:15:06.464Z,45.20
2017-12-21T08:16:59.718Z,43.50
2017-12-21T08:17:59.626Z,40.00
2017-12-21T08:19:52.881Z,37.70
2017-12-21T08:20:52.812Z,36.80
2017-12-21T08:22:46.079Z,37.00
2017-12-21T08:23:45.989Z,38.40
2017-12-21T08:25:39.266Z,41.00
2017-12-21T08:26:39.198Z,33.60
2017-12-21T08:28:32.592Z,39.60
2017-12-21T08:29:32.375Z,43.20
2017-12-21T08:31:25.624Z,31.50
2017-12-21T08:32:25.556Z,35.10
2017-12-21T08:34:18.840Z,29.70
2017-12-21T08:35:18.752Z,34.40
2017-12-21T08:37:12.140Z,30.20
2017-12-21T08:38:11.931Z,31.60
2017-12-21T08:40:05.182Z,33.20
2017-12-21T08:41:05.117Z,34.30
2017-12-21T08:42:58.412Z,42.30
2017-12-21T08:43:58.324Z,38.20
2017-12-21T08:45:51.576Z,43.60
2017-12-21T08:46:51.496Z,37.40
2017-12-21T08:48:44.771Z,33.00
2017-12-21T08:49:44.681Z,31.60
2017-12-21T08:51:37.940Z,32.40
2017-12-21T08:52:37.871Z,32.30
2017-12-21T08:54:31.274Z,37.60
2017-12-21T08:55:31.050Z,34.60
2017-12-21T08:57:24.409Z,33.10
2017-12-21T08:58:24.327Z,33.80
2017-12-21T09:00:17.559Z,36.50
2017-12-21T09:01:17.490Z,35.30
2017-12-21T09:03:10.756Z,37.90
2017-12-21T09:04:10.668Z,37.30
2017-12-21T09:06:04.035Z,33.00
2017-12-21T09:07:03.861Z,35.20
2017-12-21T09:08:57.247Z,39.00
2017-12-21T09:09:57.038Z,38.80
2017-12-21T09:11:50.380Z,35.90
2017-12-21T09:12:50.308Z,40.10
2017-12-21T09:14:43.584Z,44.80
2017-12-21T09:15:43.497Z,42.50
2017-12-21T09:17:36.774Z,48.80
2017-12-21T09:18:36.687Z,51.20
2017-12-21T09:20:30.060Z,45.00
2017-12-21T09:21:29.868Z,47.70
2017-12-21T09:23:23.135Z,49.50
2017-12-21T09:24:23.046Z,49.40
2017-12-21T09:26:16.383Z,56.90
2017-12-21T09:27:16.311Z,57.60
2017-12-21T09:29:09.588Z,64.20
2017-12-21T09:30:09.500Z,67.50
2017-12-21T09:32:02.951Z,63.10
2017-12-21T09:33:02.881Z,69.80
2017-12-21T09:34:56.150Z,76.60
2017-12-21T09:35:56.065Z,76.50
2017-12-21T09:37:49.334Z,95.70
2017-12-21T09:38:49.246Z,87.10
2017-12-21T09:40:42.496Z,83.20
2017-12-21T09:41:42.425Z,88.30
2017-12-21T09:43:35.811Z,93.70
2017-12-21T09:44:35.621Z,94.60
2017-12-21T09:46:28.871Z,82.20
2017-12-21T09:47:28.798Z,81.40
2017-12-21T09:49:22.074Z,80.10
2017-12-21T09:50:21.978Z,78.20
2017-12-21T09:52:15.230Z,87.40
2017-12-21T09:53:15.159Z,95.50
2017-12-21T09:55:08.438Z,93.90
2017-12-21T09:56:08.349Z,93.80
2017-12-21T09:58:01.738Z,112.20
2017-12-21T09:59:01.531Z,106.20
2017-12-21T10:00:55.398Z,109.00
2017-12-21T10:01:54.709Z,112.20
2017-12-21T10:03:47.978Z,104.00
2017-12-21T10:04:47.895Z,104.80
2017-12-21T10:06:41.139Z,111.00
2017-12-21T10:07:41.070Z,101.40
2017-12-21T10:09:34.456Z,118.50
2017-12-21T10:10:34.314Z,131.90
2017-12-21T10:12:27.676Z,121.90
2017-12-21T10:13:27.491Z,117.20
2017-12-21T10:15:20.757Z,121.50
2017-12-21T10:16:20.671Z,126.50
2017-12-21T10:18:13.942Z,125.30
2017-12-21T10:19:13.854Z,129.60
2017-12-21T10:21:07.103Z,121.00
2017-12-21T10:22:07.033Z,116.10
2017-12-21T10:24:00.398Z,127.00
2017-12-21T10:25:00.311Z,124.90
2017-12-21T10:26:53.567Z,137.50
2017-12-21T10:27:53.494Z,129.20
2017-12-21T10:29:46.763Z,134.20
2017-12-21T10:30:46.676Z,137.40
2017-12-21T10:32:39.924Z,126.60
2017-12-21T10:33:39.855Z,118.10
2017-12-21T10:35:33.125Z,124.20
2017-12-21T10:36:33.034Z,123.60
2017-12-21T10:38:26.403Z,124.00
2017-12-21T10:39:26.310Z,122.70
2017-12-21T10:41:19.564Z,119.60
2017-12-21T10:42:19.495Z,119.70
2017-12-21T10:44:12.761Z,113.70
2017-12-21T10:45:12.673Z,109.90
2017-12-21T10:47:06.043Z,109.50
2017-12-21T10:48:05.855Z,106.50
2017-12-21T10:49:59.122Z,94.60
2017-12-21T10:50:59.036Z,95.30
2017-12-21T10:52:52.379Z,104.80
2017-12-21T10:53:52.311Z,103.00
2017-12-21T10:55:45.578Z,102.80
2017-12-21T10:56:45.492Z,108.90
2017-12-21T10:58:38.893Z,105.10
2017-12-21T10:59:38.684Z,127.20
2017-12-21T11:01:32.553Z,123.30
2017-12-21T11:02:31.873Z,96.10
2017-12-21T11:04:25.142Z,87.30
2017-12-21T11:05:25.051Z,89.80
2017-12-21T11:07:18.380Z,83.60
2017-12-21T11:08:18.318Z,84.60
2017-12-21T11:10:11.698Z,103.50
2017-12-21T11:11:11.494Z,104.80
2017-12-21T11:13:04.754Z,84.30
2017-12-21T11:14:04.683Z,67.00
2017-12-21T11:15:58.074Z,79.00
2017-12-21T11:16:57.857Z,84.50
2017-12-21T11:18:51.133Z,69.80
2017-12-21T11:19:51.044Z,61.90
2017-12-21T11:21:44.382Z,73.40
2017-12-21T11:22:44.312Z,74.20
2017-12-21T11:24:37.581Z,58.60
2017-12-21T11:25:37.494Z,64.60
2017-12-21T11:27:30.743Z,74.60
2017-12-21T11:28:30.676Z,73.90
2017-12-21T11:30:23.944Z,63.50
2017-12-21T11:31:23.857Z,57.20
2017-12-21T11:33:17.223Z,50.00
2017-12-21T11:34:17.041Z,61.30
2017-12-21T11:36:10.424Z,57.10
2017-12-21T11:37:10.312Z,87.20
2017-12-21T11:39:04.428Z,58.50
2017-12-21T11:40:04.341Z,64.10
2017-12-21T11:41:57.594Z,62.10
2017-12-21T11:42:57.520Z,61.40
2017-12-21T11:44:50.917Z,51.30
2017-12-21T11:45:50.702Z,55.60
2017-12-21T11:47:43.954Z,61.50
2017-12-21T11:48:43.883Z,67.10
2017-12-21T11:50:37.151Z,65.70
2017-12-21T11:51:37.064Z,63.00
2017-12-21T11:53:30.384Z,60.00
2017-12-21T11:54:30.315Z,64.80
2017-12-21T11:56:23.707Z,56.60
2017-12-21T11:57:23.493Z,52.00
2017-12-21T11:59:16.879Z,57.30
2017-12-21T12:00:16.707Z,54.00
2017-12-21T12:02:09.968Z,62.50
2017-12-21T12:03:09.901Z,61.70
2017-12-21T12:05:03.179Z,50.70
2017-12-21T12:06:03.095Z,51.60
2017-12-21T12:07:56.462Z,50.90
2017-12-21T12:08:56.308Z,62.70
2017-12-21T12:10:49.699Z,64.10
2017-12-21T12:11:49.490Z,52.00
2017-12-21T12:13:42.859Z,50.90
2017-12-21T12:14:42.676Z,49.10
2017-12-21T12:16:36.061Z,50.90
2017-12-21T12:17:35.857Z,51.50
2017-12-21T12:19:29.244Z,43.30
2017-12-21T12:20:29.041Z,42.80
2017-12-21T12:22:22.378Z,44.40
2017-12-21T12:23:22.311Z,42.70
2017-12-21T12:25:15.703Z,43.10
2017-12-21T12:26:15.493Z,43.00
2017-12-21T12:28:08.769Z,39.20
2017-12-21T12:29:08.696Z,38.00
2017-12-21T12:31:02.085Z,36.70
2017-12-21T12:32:01.878Z,37.70
2017-12-21T12:33:55.247Z,31.90
2017-12-21T12:34:55.060Z,33.50
2017-12-21T12:36:48.399Z,31.40
2017-12-21T12:37:48.311Z,32.80
2017-12-21T12:39:41.582Z,28.20
2017-12-21T12:40:41.493Z,29.00
2017-12-21T12:42:34.863Z,26.90
2017-12-21T12:43:34.675Z,28.40
2017-12-21T12:45:28.060Z,27.50
2017-12-21T12:46:27.866Z,25.00
2017-12-21T12:48:21.113Z,26.00
2017-12-21T12:49:21.038Z,21.80
2017-12-21T12:51:14.400Z,26.50
2017-12-21T12:52:14.318Z,27.20
2017-12-21T12:54:07.567Z,23.60
2017-12-21T12:55:07.495Z,21.40
2017-12-21T12:57:00.885Z,18.80
2017-12-21T12:58:00.682Z,20.40
2017-12-21T12:59:53.954Z,18.70
2017-12-21T13:00:53.860Z,19.00
2017-12-21T13:02:47.123Z,18.50
2017-12-21T13:03:47.055Z,17.80
2017-12-21T13:05:40.402Z,19.50
2017-12-21T13:06:40.314Z,18.20
2017-12-21T13:08:34.433Z,18.90
2017-12-21T13:09:34.366Z,20.80
2017-12-21T13:11:27.638Z,16.50
2017-12-21T13:12:27.548Z,17.00
2017-12-21T13:14:20.914Z,13.90
2017-12-21T13:15:20.740Z,14.20
2017-12-21T13:17:14.128Z,15.80
2017-12-21T13:18:13.927Z,14.40
2017-12-21T13:20:07.223Z,14.40
2017-12-21T13:21:07.138Z,15.90
2017-12-21T13:23:00.389Z,12.10
2017-12-21T13:24:00.319Z,12.10
2017-12-21T13:25:53.582Z,14.70
2017-12-21T13:26:53.501Z,10.90
2017-12-21T13:28:46.870Z,13.70
2017-12-21T13:29:46.686Z,14.70
2017-12-21T13:31:39.962Z,14.60
2017-12-21T13:32:39.886Z,13.10
2017-12-21T13:34:33.139Z,15.20
2017-12-21T13:35:33.073Z,16.60
2017-12-21T13:37:26.461Z,14.00
2017-12-21T13:38:26.313Z,15.40
2017-12-21T13:40:19.705Z,13.80
2017-12-21T13:41:19.509Z,13.00
2017-12-21T13:43:12.761Z,12.50
2017-12-21T13:44:12.692Z,14.90
2017-12-21T13:46:06.078Z,13.70
2017-12-21T13:47:05.876Z,13.10
2017-12-21T13:48:59.127Z,13.50
2017-12-21T13:49:59.059Z,13.40
2017-12-21T13:51:52.398Z,14.60
2017-12-21T13:52:52.314Z,13.50
2017-12-21T13:54:45.564Z,18.10
2017-12-21T13:55:45.496Z,15.50
2017-12-21T13:57:38.789Z,19.20
2017-12-21T13:58:38.703Z,17.10
2017-12-21T14:00:31.972Z,15.00
2017-12-21T14:01:31.881Z,13.70
2017-12-21T14:03:25.135Z,14.80
2017-12-21T14:04:25.069Z,12.90
2017-12-21T14:06:18.402Z,15.50
2017-12-21T14:07:18.314Z,13.60
2017-12-21T14:09:11.684Z,15.60
2017-12-21T14:10:11.498Z,15.10
2017-12-21T14:12:05.777Z,15.60
2017-12-21T14:13:05.692Z,16.80
2017-12-21T14:14:58.943Z,17.50
2017-12-21T14:15:58.872Z,19.60
2017-12-21T14:17:52.141Z,17.90
2017-12-21T14:18:52.055Z,15.00
2017-12-21T14:20:45.337Z,14.60
2017-12-21T14:21:45.244Z,15.10
2017-12-21T14:23:38.615Z,13.10
2017-12-21T14:24:38.440Z,12.20
2017-12-21T14:26:31.713Z,16.20
2017-12-21T14:27:31.624Z,16.90
2017-12-21T14:29:24.875Z,15.30
2017-12-21T14:30:24.805Z,15.10
2017-12-21T14:32:18.074Z,14.00
2017-12-21T14:33:17.986Z,12.60
2017-12-21T14:35:11.237Z,12.70
2017-12-21T14:36:11.168Z,16.40
2017-12-21T14:38:04.439Z,16.50
2017-12-21T14:39:04.357Z,18.70
2017-12-21T14:40:57.624Z,15.00
2017-12-21T14:41:57.538Z,15.70
2017-12-21T14:43:50.797Z,23.40
2017-12-21T14:44:50.729Z,17.10
2017-12-21T14:46:43.997Z,17.70
2017-12-21T14:47:43.911Z,17.70
2017-12-21T14:49:37.174Z,18.90
2017-12-21T14:50:37.105Z,16.50
2017-12-21T14:52:30.401Z,15.90
2017-12-21T14:53:30.314Z,14.70
2017-12-21T14:55:23.566Z,18.50
2017-12-21T14:56:23.496Z,20.20
2017-12-21T14:58:16.767Z,16.70
2017-12-21T14:59:16.679Z,17.30
2017-12-21T15:01:10.065Z,16.00
2017-12-21T15:02:09.892Z,19.30
2017-12-21T15:04:03.145Z,17.30
2017-12-21T15:05:03.076Z,17.30
2017-12-21T15:06:56.403Z,19.80
2017-12-21T15:07:56.311Z,18.00
2017-12-21T15:09:49.567Z,19.10
2017-12-21T15:10:49.496Z,19.40
2017-12-21T15:12:42.786Z,19.30
2017-12-21T15:13:42.698Z,18.30
2017-12-21T15:15:35.948Z,23.00
2017-12-21T15:16:35.880Z,31.00
2017-12-21T15:18:29.269Z,23.20
2017-12-21T15:19:29.060Z,25.50
2017-12-21T15:21:22.400Z,23.60
2017-12-21T15:22:22.317Z,19.40
2017-12-21T15:24:15.569Z,21.40
2017-12-21T15:25:15.502Z,20.80
2017-12-21T15:27:08.774Z,22.20
2017-12-21T15:28:08.685Z,26.80
2017-12-21T15:30:01.936Z,28.20
2017-12-21T15:31:01.868Z,29.30
2017-12-21T15:32:55.140Z,27.80
2017-12-21T15:33:55.048Z,27.20
2017-12-21T15:35:48.416Z,32.40
2017-12-21T15:36:48.309Z,24.00
2017-12-21T15:38:41.700Z,30.10
2017-12-21T15:39:41.501Z,27.90
2017-12-21T15:41:34.766Z,25.40
2017-12-21T15:42:34.681Z,25.30
2017-12-21T15:44:28.046Z,26.30
2017-12-21T15:45:27.862Z,29.20
2017-12-21T15:47:21.248Z,34.30
2017-12-21T15:48:21.041Z,34.30
2017-12-21T15:50:14.407Z,29.50
2017-12-21T15:51:14.318Z,30.90
2017-12-21T15:53:07.584Z,31.00
2017-12-21T15:54:07.497Z,31.10
2017-12-21T15:56:00.752Z,29.50
2017-12-21T15:57:00.681Z,29.40
2017-12-21T15:58:53.945Z,33.40
2017-12-21T15:59:53.861Z,33.00
2017-12-21T16:01:47.134Z,35.90
2017-12-21T16:02:47.045Z,33.00
2017-12-21T16:04:41.295Z,33.10
2017-12-21T16:05:41.228Z,39.00
2017-12-21T16:07:34.613Z,36.40
2017-12-21T16:08:34.421Z,40.50
2017-12-21T16:10:27.668Z,37.00
2017-12-21T16:11:27.596Z,35.80
2017-12-21T16:13:21.872Z,39.90
2017-12-21T16:14:21.783Z,40.30
2017-12-21T16:16:15.055Z,37.60
2017-12-21T16:17:14.963Z,38.10
2017-12-21T16:19:08.234Z,42.00
2017-12-21T16:20:08.152Z,41.10
2017-12-21T16:22:01.418Z,56.30
2017-12-21T16:23:01.332Z,52.80
2017-12-21T16:24:54.582Z,45.80
2017-12-21T16:25:54.513Z,47.80
2017-12-21T16:27:47.786Z,53.10
2017-12-21T16:28:47.695Z,47.10
2017-12-21T16:30:40.949Z,43.40
2017-12-21T16:31:40.876Z,44.40
2017-12-21T16:33:34.147Z,47.90
2017-12-21T16:34:34.058Z,42.80
2017-12-21T16:36:27.351Z,43.60
2017-12-21T16:37:27.240Z,47.10
2017-12-21T16:39:20.491Z,50.00
2017-12-21T16:40:20.423Z,52.20
2017-12-21T16:42:13.692Z,49.40
2017-12-21T16:43:13.604Z,44.40
2017-12-21T16:45:06.861Z,41.70
2017-12-21T16:46:06.789Z,44.10
2017-12-21T16:48:00.056Z,43.20
2017-12-21T16:48:59.970Z,37.80
2017-12-21T16:50:53.332Z,41.10
2017-12-21T16:51:53.150Z,41.80
2017-12-21T16:53:46.418Z,44.60
2017-12-21T16:54:46.335Z,49.50
2017-12-21T16:56:39.605Z,47.70
2017-12-21T16:57:39.512Z,46.70
2017-12-21T16:59:32.766Z,45.30
2017-12-21T17:00:32.700Z,49.40
2017-12-21T17:02:25.989Z,41.30
2017-12-21T17:03:25.878Z,41.80
2017-12-21T17:05:19.130Z,40.80
2017-12-21T17:06:19.061Z,44.30
2017-12-21T17:08:12.403Z,43.80
2017-12-21T17:09:12.315Z,39.40
2017-12-21T17:11:05.594Z,45.20
2017-12-21T17:12:05.496Z,47.90
2017-12-21T17:13:58.764Z,45.40
2017-12-21T17:14:58.673Z,41.80
2017-12-21T17:16:51.958Z,51.60
2017-12-21T17:17:51.870Z,46.90
2017-12-21T17:19:45.240Z,48.10
2017-12-21T17:20:45.055Z,50.40
2017-12-21T17:22:38.404Z,49.40
2017-12-21T17:23:38.316Z,50.20
2017-12-21T17:25:31.568Z,50.10
2017-12-21T17:26:31.536Z,55.00
2017-12-21T17:28:24.919Z,52.30
2017-12-21T17:29:24.679Z,55.90
2017-12-21T17:31:17.930Z,56.20
2017-12-21T17:32:17.865Z,52.90
2017-12-21T17:34:11.160Z,52.50
2017-12-21T17:35:11.075Z,51.80
2017-12-21T17:37:04.404Z,53.90
2017-12-21T17:38:04.318Z,52.70
2017-12-21T17:39:57.769Z,53.60
2017-12-21T17:40:57.497Z,51.00
2017-12-21T17:42:50.772Z,49.60
2017-12-21T17:43:50.679Z,45.10
2017-12-21T17:45:43.932Z,46.70
2017-12-21T17:46:43.865Z,41.20
2017-12-21T17:48:37.137Z,47.80
2017-12-21T17:49:37.067Z,47.30
2017-12-21T17:51:30.384Z,45.70
2017-12-21T17:52:30.336Z,43.60
2017-12-21T17:54:23.591Z,44.00
2017-12-21T17:55:23.499Z,45.30
2017-12-21T17:57:16.766Z,45.10
2017-12-21T17:58:16.679Z,45.10
2017-12-21T18:00:09.985Z,42.20
2017-12-21T18:01:09.896Z,40.10
2017-12-21T18:03:03.176Z,37.80
2017-12-21T18:04:03.077Z,38.30
2017-12-21T18:05:56.392Z,35.50
2017-12-21T18:06:56.327Z,35.40
2017-12-21T18:08:49.620Z,37.40
2017-12-21T18:09:49.509Z,37.90
2017-12-21T18:11:42.815Z,31.80
2017-12-21T18:12:42.746Z,31.00
2017-12-21T18:14:36.020Z,30.30
2017-12-21T18:15:35.933Z,32.00
2017-12-21T18:17:29.207Z,32.30
2017-12-21T18:18:29.121Z,30.20
2017-12-21T18:20:22.490Z,28.10
2017-12-21T18:21:22.315Z,28.10
2017-12-21T18:23:15.703Z,31.00
2017-12-21T18:24:15.498Z,28.60
2017-12-21T18:26:08.749Z,28.50
2017-12-21T18:27:08.683Z,32.90
2017-12-21T18:29:01.955Z,31.80